Time;durP1;ratioP1;P1;durP2;ratioP2;P2;SDS_P1;SDS_P2;PMS_P1;PMS_P2;Temp;Humidity;BMP_temperature;BMP_pressure;BME280_temperature;BME280_humidity;BME280_pressure;Samples;Min_cycle;Max_cycle;Signal;HPM_P1;HPM_P2
2023/11/20 00:00:24;;;;;;;7.47;5.13;;;10.80;1.00;;;;;;5072114;28;20534;-79
2023/11/20 00:02:53;;;;;;;9.90;4.53;;;10.70;1.00;;;;;;5070155;28;20478;-77
2023/11/20 00:05:20;;;;;;;10.57;5.30;;;10.80;1.00;;;;;;5071232;28;21150;-78
2023/11/20 00:07:47;;;;;;;7.67;5.53;;;10.70;1.00;;;;;;5072600;28;20457;-78
2023/11/20 00:10:14;;;;;;;14.27;5.63;;;10.70;1.00;;;;;;5067284;28;20453;-79
2023/11/20 00:12:44;;;;;;;10.00;4.77;;;10.70;1.00;;;;;;5049726;28;20511;-80
2023/11/20 00:15:12;;;;;;;7.13;4.73;;;10.70;1.00;;;;;;5050223;28;20472;-76
2023/11/20 00:17:39;;;;;;;9.67;4.60;;;10.70;1.00;;;;;;5059236;28;20452;-79
2023/11/20 00:20:08;;;;;;;14.43;5.57;;;10.70;1.00;;;;;;5049132;28;20456;-77
2023/11/20 00:22:36;;;;;;;8.37;5.40;;;10.70;1.00;;;;;;5058227;28;22069;-78
2023/11/20 00:25:05;;;;;;;8.80;4.30;;;10.70;1.00;;;;;;5066072;28;20517;-78
2023/11/20 00:27:32;;;;;;;10.77;4.47;;;10.70;1.00;;;;;;5064117;28;20946;-76
2023/11/20 00:29:59;;;;;;;8.03;4.90;;;10.60;1.00;;;;;;5063127;28;20552;-79
2023/11/20 00:32:26;;;;;;;9.60;5.10;;;10.60;1.00;;;;;;5054543;28;20522;-79
2023/11/20 00:34:52;;;;;;;8.60;5.33;;;10.60;1.00;;;;;;5064510;28;20964;-81
2023/11/20 00:37:23;;;;;;;10.70;4.50;;;10.60;1.00;;;;;;5055064;28;20442;-77
2023/11/20 00:39:50;;;;;;;7.53;4.50;;;10.50;1.00;;;;;;5058814;28;20464;-81
2023/11/20 00:42:17;;;;;;;10.10;4.50;;;10.60;1.00;;;;;;5053020;28;20499;-80
2023/11/20 00:44:44;;;;;;;9.80;5.13;;;10.60;1.00;;;;;;5053996;28;20493;-79
2023/11/20 00:47:11;;;;;;;10.43;5.00;;;10.60;1.00;;;;;;5062698;28;20542;-79
2023/11/20 00:49:39;;;;;;;8.70;5.30;;;10.50;1.00;;;;;;5049215;28;20513;-76
2023/11/20 00:52:06;;;;;;;11.63;4.77;;;10.50;1.00;;;;;;5048654;28;20527;-79
2023/11/20 00:54:35;;;;;;;8.63;4.37;;;10.50;1.00;;;;;;5052858;28;20464;-80
2023/11/20 00:57:01;;;;;;;9.00;4.70;;;10.50;1.00;;;;;;5068216;28;20459;-79
2023/11/20 00:59:28;;;;;;;7.53;4.27;;;10.50;1.00;;;;;;5071461;28;21842;-79
2023/11/20 01:01:55;;;;;;;7.87;4.20;;;10.60;1.00;;;;;;5068168;28;20470;-78
2023/11/20 01:04:23;;;;;;;10.23;4.20;;;10.60;1.00;;;;;;5069747;28;20457;-80
2023/11/20 01:06:51;;;;;;;9.83;4.53;;;10.50;1.00;;;;;;5066403;28;20459;-72
2023/11/20 01:09:18;;;;;;;9.93;4.77;;;10.50;1.00;;;;;;5066428;28;20586;-72
2023/11/20 01:11:46;;;;;;;11.53;4.70;;;10.50;1.00;;;;;;5064460;28;20483;-72
2023/11/20 01:14:13;;;;;;;17.13;4.67;;;10.50;1.00;;;;;;5050056;28;20600;-74
2023/11/20 01:16:40;;;;;;;11.07;4.77;;;10.50;1.00;;;;;;5058422;28;20557;-71
2023/11/20 01:19:07;;;;;;;7.53;4.70;;;10.50;1.00;;;;;;5061898;28;20842;-71
2023/11/20 01:21:34;;;;;;;7.37;4.80;;;10.60;1.00;;;;;;5063312;28;20484;-71
2023/11/20 01:24:01;;;;;;;11.37;4.70;;;10.60;1.00;;;;;;5063459;28;20983;-72
2023/11/20 01:26:28;;;;;;;7.50;4.00;;;10.60;1.00;;;;;;5048926;28;20484;-72
2023/11/20 01:28:57;;;;;;;10.93;4.97;;;10.60;1.00;;;;;;5053143;28;20542;-74
2023/11/20 01:31:24;;;;;;;9.40;4.37;;;10.60;1.00;;;;;;5062783;28;20470;-72
2023/11/20 01:33:52;;;;;;;9.73;4.00;;;10.60;1.00;;;;;;5062169;28;20459;-73
2023/11/20 01:36:19;;;;;;;6.40;4.10;;;10.70;1.00;;;;;;5059909;28;20523;-72
2023/11/20 01:38:45;;;;;;;6.93;4.17;;;10.70;1.00;;;;;;5054288;28;20464;-76
2023/11/20 01:41:13;;;;;;;12.13;4.50;;;10.70;1.00;;;;;;5044530;28;20543;-72
2023/11/20 01:43:40;;;;;;;12.93;4.47;;;10.70;1.00;;;;;;5043566;28;21066;-73
2023/11/20 01:46:12;;;;;;;9.10;4.60;;;10.70;1.00;;;;;;5046936;28;20487;-75
2023/11/20 01:48:44;;;;;;;11.23;4.77;;;10.60;1.00;;;;;;5051301;28;21325;-75
2023/11/20 01:51:12;;;;;;;13.20;4.83;;;10.60;1.00;;;;;;5057543;28;20678;-72
2023/11/20 01:53:40;;;;;;;8.30;4.70;;;10.50;1.00;;;;;;5049756;28;20913;-73
2023/11/20 01:56:10;;;;;;;7.47;3.37;;;10.50;1.00;;;;;;5056898;28;20572;-72
2023/11/20 01:58:37;;;;;;;7.43;4.00;;;10.50;1.00;;;;;;5067331;28;20658;-71
2023/11/20 02:01:05;;;;;;;7.23;4.10;;;10.40;1.00;;;;;;5064418;28;20507;-73
2023/11/20 02:03:33;;;;;;;9.10;4.13;;;10.40;1.00;;;;;;5064175;28;20463;-71
2023/11/20 02:06:00;;;;;;;7.47;3.30;;;10.40;1.00;;;;;;5060998;28;20542;-74
2023/11/20 02:08:28;;;;;;;6.57;3.30;;;10.40;1.00;;;;;;5052664;28;20551;-74
2023/11/20 02:10:56;;;;;;;6.83;3.93;;;10.50;1.00;;;;;;5064509;28;20502;-71
2023/11/20 02:13:23;;;;;;;5.37;3.30;;;10.60;1.00;;;;;;5066289;28;20913;-71
2023/11/20 02:15:50;;;;;;;8.27;3.33;;;10.50;1.00;;;;;;5056230;28;20530;-69
2023/11/20 02:18:30;;;;;;;11.53;4.10;;;10.50;1.00;;;;;;5059409;28;20452;-76
2023/11/20 02:20:59;;;;;;;7.83;3.40;;;10.60;1.00;;;;;;5063222;28;20991;-78
2023/11/20 02:23:26;;;;;;;6.73;3.30;;;10.60;1.00;;;;;;5048330;28;20570;-76
2023/11/20 02:26:08;;;;;;;7.20;3.60;;;10.60;1.00;;;;;;5065283;28;20539;-78
2023/11/20 02:28:40;;;;;;;8.10;3.13;;;10.50;1.00;;;;;;5064991;28;20479;-75
2023/11/20 02:31:11;;;;;;;7.43;3.60;;;10.50;1.00;;;;;;5051687;28;20482;-77
2023/11/20 02:33:39;;;;;;;7.87;3.30;;;10.50;1.00;;;;;;5063108;28;20455;-76
2023/11/20 02:36:06;;;;;;;5.70;2.83;;;10.40;1.00;;;;;;5057816;28;20468;-75
2023/11/20 02:38:33;;;;;;;6.33;4.00;;;10.40;1.00;;;;;;5066444;28;20464;-75
2023/11/20 02:41:00;;;;;;;5.90;2.97;;;10.40;1.00;;;;;;5056133;28;20503;-75
2023/11/20 02:43:27;;;;;;;5.60;3.13;;;10.40;1.00;;;;;;5064894;28;20456;-76
2023/11/20 02:45:55;;;;;;;8.43;3.80;;;10.30;1.00;;;;;;5048216;28;20444;-76
2023/11/20 02:48:23;;;;;;;3.90;3.03;;;10.30;1.00;;;;;;5065247;28;20456;-75
2023/11/20 02:50:53;;;;;;;5.17;3.03;;;10.30;1.00;;;;;;5059340;28;20432;-76
2023/11/20 02:53:20;;;;;;;7.10;2.60;;;10.40;1.00;;;;;;5064859;28;20558;-74
2023/11/20 02:55:47;;;;;;;7.83;3.10;;;10.30;1.00;;;;;;5067557;28;20463;-75
2023/11/20 02:58:13;;;;;;;5.63;3.00;;;10.40;1.00;;;;;;5045158;28;20469;-77
2023/11/20 03:00:41;;;;;;;4.73;2.70;;;10.30;1.00;;;;;;5050390;28;20471;-76
2023/11/20 03:03:07;;;;;;;5.23;2.90;;;10.30;1.00;;;;;;5065489;28;20475;-77
2023/11/20 03:05:36;;;;;;;4.10;2.63;;;10.30;1.00;;;;;;5062085;28;20466;-77
2023/11/20 03:08:03;;;;;;;6.33;3.00;;;10.30;1.00;;;;;;5067996;28;20459;-76
2023/11/20 03:10:30;;;;;;;5.10;2.87;;;10.40;1.00;;;;;;5066500;28;20455;-76
2023/11/20 03:12:57;;;;;;;4.83;2.60;;;10.40;1.00;;;;;;5065187;28;20472;-78
2023/11/20 03:15:23;;;;;;;2.90;2.60;;;10.40;1.00;;;;;;5066598;28;21035;-76
2023/11/20 03:17:50;;;;;;;6.30;2.67;;;10.40;1.00;;;;;;5066518;28;20582;-76
2023/11/20 03:20:17;;;;;;;5.60;2.60;;;10.40;1.00;;;;;;5057385;28;20472;-76
2023/11/20 03:22:46;;;;;;;7.00;2.77;;;10.40;1.00;;;;;;5058619;28;20468;-76
2023/11/20 03:25:13;;;;;;;4.37;2.30;;;10.40;1.00;;;;;;5055410;28;20531;-74
2023/11/20 03:27:40;;;;;;;7.43;2.23;;;10.40;1.00;;;;;;5050813;28;20484;-77
2023/11/20 03:30:09;;;;;;;6.07;2.57;;;10.30;1.00;;;;;;5049957;28;20558;-78
2023/11/20 03:32:36;;;;;;;4.40;2.57;;;10.30;1.00;;;;;;5055987;28;20455;-77
2023/11/20 03:35:05;;;;;;;4.40;2.20;;;10.30;1.00;;;;;;5058041;28;20610;-78
2023/11/20 03:37:32;;;;;;;5.50;2.80;;;10.40;1.00;;;;;;5057260;28;20468;-75
2023/11/20 03:40:01;;;;;;;4.03;2.60;;;10.40;1.00;;;;;;5065289;28;20562;-80
2023/11/20 03:42:28;;;;;;;8.10;3.30;;;10.30;1.00;;;;;;5058661;28;20447;-79
2023/11/20 03:44:54;;;;;;;5.00;2.80;;;10.40;1.00;;;;;;5065827;28;20460;-79
2023/11/20 03:47:24;;;;;;;3.60;2.80;;;10.40;1.00;;;;;;5055806;28;20487;-79
2023/11/20 03:49:51;;;;;;;5.23;3.10;;;10.40;1.00;;;;;;5053531;28;20574;-79
2023/11/20 03:52:18;;;;;;;2.17;1.97;;;10.30;1.00;;;;;;5060100;28;21250;-79
2023/11/20 03:54:46;;;;;;;4.77;2.43;;;10.30;1.00;;;;;;5069199;28;20483;-79
2023/11/20 03:57:16;;;;;;;7.17;3.17;;;10.30;1.00;;;;;;5069294;28;20517;-78
2023/11/20 03:59:43;;;;;;;4.13;2.90;;;10.40;1.00;;;;;;5071483;28;20495;-79
2023/11/20 04:02:10;;;;;;;5.83;3.30;;;10.40;1.00;;;;;;5062335;28;20472;-78
2023/11/20 04:04:37;;;;;;;6.17;3.00;;;10.40;1.00;;;;;;5049386;28;21174;-78
2023/11/20 04:07:05;;;;;;;5.13;2.70;;;10.40;1.00;;;;;;5066075;28;20563;-77
2023/11/20 04:09:32;;;;;;;3.67;2.33;;;10.40;1.00;;;;;;5050437;28;20476;-78
2023/11/20 04:11:59;;;;;;;6.40;3.30;;;10.40;1.00;;;;;;5065414;28;21674;-75
2023/11/20 04:14:28;;;;;;;5.03;2.80;;;10.40;1.00;;;;;;5075687;28;20967;-79
2023/11/20 04:16:58;;;;;;;5.13;2.60;;;10.40;1.00;;;;;;5048583;28;20453;-79
2023/11/20 04:19:26;;;;;;;4.50;2.50;;;10.40;1.00;;;;;;5056920;28;20484;-79
2023/11/20 04:21:53;;;;;;;6.57;2.60;;;10.40;1.00;;;;;;5057978;28;20463;-79
2023/11/20 04:24:20;;;;;;;6.93;3.07;;;10.30;1.00;;;;;;5071564;28;20444;-78
2023/11/20 04:26:47;;;;;;;5.03;3.13;;;10.30;1.00;;;;;;5055397;28;20485;-79
2023/11/20 04:29:14;;;;;;;6.60;3.17;;;10.30;1.00;;;;;;5048398;28;20895;-76
2023/11/20 04:31:46;;;;;;;4.47;2.90;;;10.30;1.00;;;;;;5063519;28;21112;-75
2023/11/20 04:34:13;;;;;;;4.87;3.00;;;10.30;1.00;;;;;;5064551;28;20464;-79
2023/11/20 04:36:40;;;;;;;7.03;2.40;;;10.30;1.00;;;;;;5060072;28;20836;-71
2023/11/20 04:39:08;;;;;;;5.40;3.07;;;10.30;1.00;;;;;;5050377;28;20516;-75
2023/11/20 04:41:35;;;;;;;5.53;3.47;;;10.40;1.00;;;;;;5060493;28;20455;-71
2023/11/20 04:44:02;;;;;;;3.57;2.50;;;10.40;1.00;;;;;;5071648;28;20483;-72
2023/11/20 04:46:29;;;;;;;8.90;2.93;;;10.40;1.00;;;;;;5059135;28;20464;-72
2023/11/20 04:49:01;;;;;;;5.70;3.20;;;10.30;1.00;;;;;;5064780;28;20532;-71
2023/11/20 04:51:27;;;;;;;4.93;3.10;;;10.30;1.00;;;;;;5067894;28;20554;-73
2023/11/20 04:53:54;;;;;;;4.50;3.17;;;10.30;1.00;;;;;;5053726;28;20562;-71
2023/11/20 04:56:21;;;;;;;4.70;2.70;;;10.30;1.00;;;;;;5059553;28;20538;-72
2023/11/20 04:58:48;;;;;;;5.90;3.10;;;10.30;1.00;;;;;;5056402;28;21249;-73
2023/11/20 05:01:15;;;;;;;4.13;3.10;;;10.40;1.00;;;;;;5056870;28;20439;-72
2023/11/20 05:03:43;;;;;;;4.53;3.30;;;10.40;1.00;;;;;;5049695;28;20484;-76
2023/11/20 05:06:12;;;;;;;4.83;2.90;;;10.40;1.00;;;;;;5045789;28;20974;-73
2023/11/20 05:08:39;;;;;;;4.77;3.70;;;10.40;1.00;;;;;;5047077;28;20470;-72
2023/11/20 05:11:08;;;;;;;5.00;3.33;;;10.50;1.00;;;;;;5053036;28;20445;-74
2023/11/20 05:13:35;;;;;;;5.77;3.50;;;10.50;1.00;;;;;;5043641;28;20942;-72
2023/11/20 05:16:03;;;;;;;4.57;3.00;;;10.50;1.00;;;;;;5061151;28;20561;-75
2023/11/20 05:18:30;;;;;;;4.33;3.17;;;10.50;1.00;;;;;;5045335;28;20535;-72
2023/11/20 05:20:57;;;;;;;4.43;2.40;;;10.50;1.00;;;;;;5054770;28;20465;-72
2023/11/20 05:23:26;;;;;;;5.67;2.23;;;10.40;1.00;;;;;;5084621;28;20495;-74
2023/11/20 05:25:54;;;;;;;6.40;2.87;;;10.40;1.00;;;;;;5065983;28;20898;-73
2023/11/20 05:28:21;;;;;;;6.73;3.20;;;10.40;1.00;;;;;;5065009;28;20597;-75
2023/11/20 05:30:49;;;;;;;5.50;3.27;;;10.40;1.00;;;;;;5073195;28;20664;-74
2023/11/20 05:33:17;;;;;;;5.43;2.23;;;10.40;1.00;;;;;;5066206;28;20475;-74
2023/11/20 05:35:44;;;;;;;7.57;3.00;;;10.40;1.00;;;;;;5067660;28;20589;-73
2023/11/20 05:38:11;;;;;;;4.10;2.70;;;10.40;1.00;;;;;;5054385;28;20472;-72
2023/11/20 05:40:39;;;;;;;4.90;2.90;;;10.50;1.00;;;;;;5062298;28;20468;-74
2023/11/20 05:43:08;;;;;;;5.67;3.67;;;10.50;1.00;;;;;;5063433;28;20460;-76
2023/11/20 05:45:35;;;;;;;4.57;2.57;;;10.60;1.00;;;;;;5065541;28;20464;-73
2023/11/20 05:48:02;;;;;;;7.13;3.03;;;10.60;1.00;;;;;;5068541;28;20541;-79
2023/11/20 05:50:29;;;;;;;5.27;3.47;;;10.60;1.00;;;;;;5069127;28;20648;-77
2023/11/20 05:52:56;;;;;;;4.30;3.23;;;10.60;1.00;;;;;;5060577;28;20456;-79
2023/11/20 05:55:29;;;;;;;5.03;3.13;;;10.50;1.00;;;;;;5066520;28;20463;-79
2023/11/20 05:58:02;;;;;;;6.30;3.63;;;10.60;1.00;;;;;;5061471;28;20478;-77
2023/11/20 06:00:29;;;;;;;5.10;4.37;;;10.50;1.00;;;;;;5059060;28;20510;-79
2023/11/20 06:02:56;;;;;;;5.87;4.40;;;10.60;1.00;;;;;;5068766;28;20931;-78
2023/11/20 06:05:23;;;;;;;5.90;3.33;;;10.60;1.00;;;;;;5054810;28;20567;-78
2023/11/20 06:07:51;;;;;;;4.90;2.80;;;10.70;1.00;;;;;;5055882;28;20486;-77
2023/11/20 06:10:18;;;;;;;4.43;2.90;;;10.70;1.00;;;;;;5052515;28;20429;-79
2023/11/20 06:12:45;;;;;;;7.70;4.00;;;10.70;1.00;;;;;;5063284;28;20968;-79
2023/11/20 06:15:14;;;;;;;11.33;4.83;;;10.70;1.00;;;;;;5053864;28;20480;-76
2023/11/20 06:17:41;;;;;;;5.13;3.67;;;10.70;1.00;;;;;;5061813;28;20589;-79
2023/11/20 06:20:09;;;;;;;5.17;3.80;;;10.80;1.00;;;;;;5068684;28;21173;-78
2023/11/20 06:22:36;;;;;;;8.10;4.87;;;10.70;1.00;;;;;;5073469;28;20542;-77
2023/11/20 06:25:10;;;;;;;5.30;4.20;;;10.70;1.00;;;;;;5075883;28;20459;-77
2023/11/20 06:27:39;;;;;;;6.57;4.33;;;10.70;1.00;;;;;;5080741;28;20626;-78
2023/11/20 06:30:07;;;;;;;8.00;4.83;;;10.70;1.00;;;;;;5075329;28;20455;-77
2023/11/20 06:32:36;;;;;;;7.53;6.03;;;10.80;1.00;;;;;;5071929;28;20456;-76
2023/11/20 06:35:04;;;;;;;6.60;5.90;;;10.80;1.00;;;;;;5071858;28;20603;-80
2023/11/20 06:37:33;;;;;;;6.00;4.77;;;10.80;1.00;;;;;;5071917;28;20543;-81
2023/11/20 06:40:02;;;;;;;4.90;4.40;;;10.80;1.00;;;;;;5070953;28;20529;-81
2023/11/20 06:42:29;;;;;;;5.53;5.00;;;10.80;1.00;;;;;;5069606;28;21320;-76
2023/11/20 06:44:56;;;;;;;5.00;4.50;;;11.00;1.00;;;;;;5071978;28;20460;-81
2023/11/20 06:47:23;;;;;;;8.80;4.93;;;11.00;1.00;;;;;;5071339;28;20566;-79
2023/11/20 06:49:52;;;;;;;7.30;5.90;;;10.90;1.00;;;;;;5066245;28;20558;-78
2023/11/20 06:52:23;;;;;;;7.23;6.60;;;11.00;1.00;;;;;;5067987;28;20471;-78
2023/11/20 06:54:50;;;;;;;7.43;5.87;;;11.00;1.00;;;;;;5055371;28;20472;-75
2023/11/20 06:57:19;;;;;;;5.23;4.83;;;10.90;1.00;;;;;;5065432;28;20571;-75
2023/11/20 06:59:48;;;;;;;10.33;7.03;;;10.90;1.00;;;;;;5063818;28;21063;-72
2023/11/20 07:02:15;;;;;;;6.90;6.20;;;10.90;1.00;;;;;;5063500;28;20456;-73
2023/11/20 07:04:44;;;;;;;8.93;5.40;;;10.90;1.00;;;;;;5072388;28;20478;-71
2023/11/20 07:07:14;;;;;;;6.43;5.53;;;10.90;1.00;;;;;;5068144;28;20502;-71
2023/11/20 07:09:43;;;;;;;11.23;8.70;;;10.90;1.00;;;;;;5065930;28;20479;-73
2023/11/20 07:12:11;;;;;;;7.00;5.57;;;10.90;1.00;;;;;;5057335;28;20492;-75
2023/11/20 07:14:38;;;;;;;7.90;6.10;;;11.00;1.00;;;;;;5069044;28;20453;-74
2023/11/20 07:17:06;;;;;;;8.70;7.90;;;11.00;1.00;;;;;;5084559;28;21831;-72
2023/11/20 07:19:33;;;;;;;7.03;5.53;;;11.00;1.00;;;;;;5061687;28;20451;-75
2023/11/20 07:22:00;;;;;;;6.93;6.27;;;11.00;1.00;;;;;;5071238;28;20455;-73
2023/11/20 07:24:29;;;;;;;6.30;5.70;;;10.90;1.00;;;;;;5073639;28;20521;-73
2023/11/20 07:26:56;;;;;;;7.97;7.17;;;10.90;1.00;;;;;;5078081;28;20455;-74
2023/11/20 07:29:24;;;;;;;8.27;6.80;;;11.00;1.00;;;;;;5068141;28;20578;-75
2023/11/20 07:31:53;;;;;;;8.57;6.80;;;11.00;1.00;;;;;;5062278;28;20446;-74
2023/11/20 07:34:22;;;;;;;10.20;7.97;;;11.00;1.00;;;;;;5056366;28;20453;-74
2023/11/20 07:36:50;;;;;;;7.80;6.40;;;11.00;1.00;;;;;;5056751;28;20478;-71
2023/11/20 07:39:18;;;;;;;8.37;6.37;;;11.00;1.00;;;;;;5058572;28;20463;-73
2023/11/20 07:41:47;;;;;;;7.83;6.70;;;11.00;1.00;;;;;;5050440;28;20461;-74
2023/11/20 07:44:14;;;;;;;7.97;7.03;;;11.00;1.00;;;;;;5070210;28;20484;-73
2023/11/20 07:46:41;;;;;;;6.30;5.77;;;11.00;1.00;;;;;;5056460;28;20554;-74
2023/11/20 07:49:09;;;;;;;7.53;6.17;;;11.00;1.00;;;;;;5059083;28;20987;-72
2023/11/20 07:51:36;;;;;;;6.87;6.20;;;11.00;1.00;;;;;;5053789;28;20440;-73
2023/11/20 07:54:03;;;;;;;7.57;6.60;;;11.10;1.00;;;;;;5068442;28;20465;-73
2023/11/20 07:56:30;;;;;;;7.17;6.37;;;11.10;1.00;;;;;;5062740;28;20470;-73
2023/11/20 07:58:58;;;;;;;7.10;6.37;;;11.00;1.00;;;;;;5045317;28;20547;-76
2023/11/20 08:01:28;;;;;;;8.73;7.33;;;10.90;1.00;;;;;;5055743;28;20460;-74
2023/11/20 08:03:55;;;;;;;9.17;6.27;;;11.00;1.00;;;;;;5063678;28;20477;-74
2023/11/20 08:06:22;;;;;;;6.50;5.90;;;11.20;1.00;;;;;;5064952;28;20460;-74
2023/11/20 08:08:49;;;;;;;7.73;6.80;;;11.20;1.00;;;;;;5055872;28;20534;-74
2023/11/20 08:11:17;;;;;;;10.77;9.77;;;11.20;1.00;;;;;;5055514;28;20610;-72
2023/11/20 08:13:45;;;;;;;7.73;6.97;;;11.20;1.00;;;;;;5062100;28;20460;-77
2023/11/20 08:16:16;;;;;;;8.73;7.83;;;11.20;1.00;;;;;;5057681;28;20476;-74
2023/11/20 08:18:43;;;;;;;8.27;7.47;;;11.10;1.00;;;;;;5055126;28;20914;-75
2023/11/20 08:21:10;;;;;;;8.50;6.57;;;11.20;1.00;;;;;;5055301;28;20451;-73
2023/11/20 08:23:38;;;;;;;7.77;6.97;;;11.20;1.00;;;;;;5056523;28;20981;-73
2023/11/20 08:26:05;;;;;;;9.20;8.00;;;11.20;1.00;;;;;;5056008;28;20463;-74
2023/11/20 08:28:32;;;;;;;7.20;6.50;;;11.20;1.00;;;;;;5059125;28;20924;-75
2023/11/20 08:30:59;;;;;;;6.60;5.90;;;11.30;1.00;;;;;;5050923;28;20471;-72
2023/11/20 08:33:28;;;;;;;7.90;6.50;;;11.30;1.00;;;;;;5069902;28;20453;-75
2023/11/20 08:35:57;;;;;;;7.30;6.53;;;11.30;1.00;;;;;;5074001;28;20507;-74
2023/11/20 08:38:24;;;;;;;8.87;7.87;;;11.20;1.00;;;;;;5070427;28;20455;-74
2023/11/20 08:40:50;;;;;;;8.70;7.90;;;11.20;1.00;;;;;;5071004;28;20893;-72
2023/11/20 08:43:17;;;;;;;8.93;7.90;;;11.20;1.00;;;;;;5066969;28;21296;-71
2023/11/20 08:45:44;;;;;;;9.37;8.20;;;11.30;1.00;;;;;;5066880;28;20472;-71
2023/11/20 08:48:12;;;;;;;8.70;7.87;;;11.20;1.00;;;;;;5066556;28;20865;-71
2023/11/20 08:50:40;;;;;;;9.37;8.37;;;11.20;1.00;;;;;;5048434;28;20530;-72
2023/11/20 08:53:10;;;;;;;10.33;9.23;;;11.30;1.00;;;;;;5053732;28;20484;-76
2023/11/20 08:55:38;;;;;;;10.13;9.13;;;11.30;1.00;;;;;;5064337;28;20447;-76
2023/11/20 08:58:05;;;;;;;9.50;8.20;;;11.30;1.00;;;;;;5067688;28;20943;-71
2023/11/20 09:00:32;;;;;;;9.93;8.87;;;11.30;1.00;;;;;;5066031;28;20931;-70
2023/11/20 09:02:59;;;;;;;10.20;9.00;;;11.40;1.00;;;;;;5068046;28;20470;-70
2023/11/20 09:05:26;;;;;;;12.20;8.90;;;11.40;1.00;;;;;;5067137;28;20581;-72
2023/11/20 09:07:56;;;;;;;9.60;8.50;;;11.40;1.00;;;;;;5067636;28;20506;-72
2023/11/20 09:10:24;;;;;;;8.67;7.87;;;11.40;1.00;;;;;;5049581;28;20538;-76
2023/11/20 09:12:51;;;;;;;14.67;10.07;;;11.40;1.00;;;;;;5060561;28;20941;-76
2023/11/20 09:15:19;;;;;;;10.97;8.70;;;11.40;1.00;;;;;;5052365;28;20491;-74
2023/11/20 09:17:46;;;;;;;9.87;8.37;;;11.50;1.00;;;;;;5065366;28;20534;-73
2023/11/20 09:20:19;;;;;;;12.37;8.97;;;11.50;1.00;;;;;;5048219;28;20553;-75
2023/11/20 09:22:45;;;;;;;8.73;7.93;;;11.60;1.00;;;;;;5047889;28;20481;-74
2023/11/20 09:25:14;;;;;;;9.53;8.50;;;11.50;1.00;;;;;;5055808;28;20509;-75
2023/11/20 09:27:41;;;;;;;8.87;8.07;;;11.50;1.00;;;;;;5067189;28;20519;-73
2023/11/20 09:30:12;;;;;;;10.00;9.00;;;11.60;1.00;;;;;;5066838;28;22430;-71
2023/11/20 09:32:40;;;;;;;9.60;8.80;;;11.70;1.00;;;;;;5066082;28;20483;-75
2023/11/20 09:35:10;;;;;;;11.17;10.03;;;11.80;1.00;;;;;;5062163;28;20476;-72
2023/11/20 09:37:37;;;;;;;12.00;10.07;;;11.80;1.00;;;;;;5054116;28;20463;-76
2023/11/20 09:40:05;;;;;;;9.57;8.57;;;11.90;1.00;;;;;;5069976;28;20515;-74
2023/11/20 09:42:35;;;;;;;11.87;10.17;;;11.90;1.00;;;;;;5059984;28;20501;-76
2023/11/20 09:45:04;;;;;;;13.13;11.77;;;11.90;1.00;;;;;;5059859;28;20487;-75
2023/11/20 09:47:32;;;;;;;12.00;9.60;;;12.00;1.00;;;;;;5068218;28;22392;-73
2023/11/20 09:50:03;;;;;;;11.70;10.57;;;12.00;1.00;;;;;;5065608;28;20485;-75
2023/11/20 09:52:33;;;;;;;12.43;11.00;;;12.00;1.00;;;;;;5064116;28;20481;-73
2023/11/20 09:55:00;;;;;;;10.70;9.73;;;12.00;1.00;;;;;;5064189;28;20907;-78
2023/11/20 09:57:27;;;;;;;10.40;9.30;;;12.00;1.00;;;;;;5050254;28;20482;-74
2023/11/20 09:59:59;;;;;;;7.60;6.80;;;12.10;1.00;;;;;;5062828;28;20581;-75
2023/11/20 10:02:29;;;;;;;9.47;8.57;;;12.10;1.00;;;;;;5068887;28;20522;-75
2023/11/20 10:04:57;;;;;;;9.63;8.43;;;12.10;1.00;;;;;;5063666;28;20472;-72
2023/11/20 10:07:27;;;;;;;8.67;7.90;;;12.10;1.00;;;;;;5040455;28;20560;-75
2023/11/20 10:09:58;;;;;;;8.90;8.00;;;12.10;1.00;;;;;;5049001;28;20486;-72
2023/11/20 10:12:26;;;;;;;7.93;7.13;;;12.10;1.00;;;;;;5061301;28;20574;-72
2023/11/20 10:14:55;;;;;;;7.70;6.93;;;12.10;1.00;;;;;;5064382;28;20464;-73
2023/11/20 10:17:24;;;;;;;8.37;7.47;;;12.10;1.00;;;;;;5056537;28;20472;-70
2023/11/20 10:19:51;;;;;;;8.33;7.30;;;12.10;1.00;;;;;;5064316;28;20465;-73
2023/11/20 10:22:19;;;;;;;8.70;7.80;;;12.20;1.00;;;;;;5061299;28;20555;-73
2023/11/20 10:24:48;;;;;;;7.67;6.97;;;12.20;1.00;;;;;;5052094;28;20948;-74
2023/11/20 10:27:17;;;;;;;6.60;5.50;;;12.10;1.00;;;;;;5059595;28;20483;-73
2023/11/20 10:29:44;;;;;;;6.53;5.67;;;12.10;1.00;;;;;;5060200;28;21344;-72
2023/11/20 10:32:14;;;;;;;6.73;6.13;;;12.10;1.00;;;;;;5058479;28;20613;-73
2023/11/20 10:34:41;;;;;;;7.97;6.60;;;12.10;1.00;;;;;;5053070;28;20493;-74
2023/11/20 10:37:09;;;;;;;6.93;5.93;;;12.20;1.00;;;;;;5048108;28;22380;-77
2023/11/20 10:39:37;;;;;;;7.93;5.97;;;12.40;1.00;;;;;;5067891;28;20547;-72
2023/11/20 10:42:04;;;;;;;6.50;5.80;;;12.50;1.00;;;;;;5070620;28;20498;-74
2023/11/20 10:44:35;;;;;;;6.00;5.07;;;12.60;1.00;;;;;;5058570;28;20538;-72
2023/11/20 10:47:05;;;;;;;5.80;5.30;;;12.70;1.00;;;;;;5066388;28;20569;-72
2023/11/20 10:49:38;;;;;;;4.30;3.90;;;12.70;1.00;;;;;;5053493;28;20984;-71
2023/11/20 10:52:10;;;;;;;5.97;5.10;;;12.60;1.00;;;;;;5044101;28;20423;-71
2023/11/20 10:54:46;;;;;;;5.80;4.80;;;12.60;1.00;;;;;;5046999;28;20921;-72
2023/11/20 10:57:13;;;;;;;5.90;5.30;;;12.60;1.00;;;;;;5056974;28;21534;-76
2023/11/20 10:59:43;;;;;;;4.43;4.00;;;12.60;1.00;;;;;;5054050;28;20485;-77
2023/11/20 11:02:20;;;;;;;5.80;4.97;;;12.60;1.00;;;;;;5048688;28;20449;-76
2023/11/20 11:04:52;;;;;;;6.57;5.80;;;12.60;1.00;;;;;;5051767;28;20565;-76
2023/11/20 11:07:22;;;;;;;4.20;3.80;;;12.60;1.00;;;;;;5060493;28;20448;-74
2023/11/20 11:09:50;;;;;;;4.70;4.20;;;12.70;1.00;;;;;;5058567;28;20465;-69
2023/11/20 11:12:20;;;;;;;4.93;4.20;;;12.60;1.00;;;;;;5059454;28;20508;-73
2023/11/20 11:14:48;;;;;;;4.83;4.33;;;12.50;1.00;;;;;;5051366;28;20542;-73
2023/11/20 11:17:22;;;;;;;5.23;4.73;;;12.50;1.00;;;;;;5051259;28;21169;-70
2023/11/20 11:20:02;;;;;;;6.20;4.77;;;12.50;1.00;;;;;;5067624;28;20914;-71
2023/11/20 11:22:33;;;;;;;9.63;4.50;;;12.40;1.00;;;;;;5066780;28;20560;-71
2023/11/20 11:25:09;;;;;;;5.10;4.70;;;12.30;1.00;;;;;;5067000;28;20505;-71
2023/11/20 11:27:38;;;;;;;6.07;5.17;;;12.30;1.00;;;;;;5048727;28;21212;-73
2023/11/20 11:30:10;;;;;;;4.23;3.83;;;12.30;1.00;;;;;;5049448;28;20501;-68
2023/11/20 11:33:08;;;;;;;6.03;4.90;;;12.20;1.00;;;;;;5051323;28;20466;-70
2023/11/20 11:36:05;;;;;;;5.37;4.57;;;12.30;1.00;;;;;;5056040;28;20972;-71
2023/11/20 11:38:42;;;;;;;6.03;5.03;;;12.30;1.00;;;;;;5051727;28;20540;-70
2023/11/20 11:41:25;;;;;;;5.20;4.70;;;12.20;1.00;;;;;;5054510;28;20460;-71
2023/11/20 11:43:59;;;;;;;6.37;5.63;;;12.20;1.00;;;;;;5047734;28;20430;-70
2023/11/20 11:46:27;;;;;;;5.73;5.20;;;12.30;1.00;;;;;;5045771;28;20473;-70
2023/11/20 11:49:13;;;;;;;5.73;5.23;;;12.30;1.00;;;;;;5063298;28;20465;-73
2023/11/20 11:51:43;;;;;;;5.97;5.37;;;12.40;1.00;;;;;;5058189;28;20468;-72
2023/11/20 11:54:20;;;;;;;7.00;6.30;;;12.40;1.00;;;;;;5069641;28;20456;-69
2023/11/20 11:56:59;;;;;;;7.60;5.27;;;12.30;1.00;;;;;;5054422;28;20477;-71
2023/11/20 11:59:40;;;;;;;5.90;5.30;;;12.30;1.00;;;;;;5064063;28;20517;-70
2023/11/20 12:02:08;;;;;;;6.40;5.80;;;12.30;1.00;;;;;;5068712;28;20461;-73
2023/11/20 12:05:03;;;;;;;6.50;6.00;;;12.30;1.00;;;;;;5064416;28;20507;-74
2023/11/20 12:07:53;;;;;;;7.00;6.23;;;12.30;1.00;;;;;;5055833;28;20458;-76
2023/11/20 12:10:41;;;;;;;7.70;6.20;;;12.40;1.00;;;;;;5061927;28;20468;-73
2023/11/20 12:13:11;;;;;;;7.37;6.47;;;12.30;1.00;;;;;;5055754;28;20543;-74
2023/11/20 12:15:42;;;;;;;6.60;6.00;;;12.20;1.00;;;;;;5058119;28;20716;-74
2023/11/20 12:18:11;;;;;;;7.10;6.10;;;12.20;1.00;;;;;;5061297;28;20546;-72
2023/11/20 12:20:40;;;;;;;7.67;6.97;;;12.20;1.00;;;;;;5064756;28;20510;-72
2023/11/20 12:23:19;;;;;;;7.80;7.00;;;12.20;1.00;;;;;;5066431;28;20471;-73
2023/11/20 12:25:48;;;;;;;7.27;6.57;;;12.20;1.00;;;;;;5044520;28;20453;-76
2023/11/20 12:28:16;;;;;;;8.47;6.60;;;12.30;1.00;;;;;;5049141;28;20465;-69
2023/11/20 12:30:44;;;;;;;9.10;8.20;;;12.30;1.00;;;;;;5055394;28;20476;-77
2023/11/20 12:33:11;;;;;;;11.27;9.10;;;12.30;1.00;;;;;;5048585;28;20454;-68
2023/11/20 12:35:39;;;;;;;9.40;8.17;;;12.40;1.00;;;;;;5058124;28;20455;-71
2023/11/20 12:38:09;;;;;;;9.77;8.80;;;12.30;1.00;;;;;;5064449;28;20526;-70
2023/11/20 12:40:36;;;;;;;10.10;8.67;;;12.30;1.00;;;;;;5056249;28;20950;-69
2023/11/20 12:43:03;;;;;;;11.00;9.67;;;12.40;1.00;;;;;;5062468;28;20936;-69
2023/11/20 12:45:30;;;;;;;13.93;10.60;;;12.40;1.00;;;;;;5058728;28;20946;-71
2023/11/20 12:47:57;;;;;;;10.47;9.37;;;12.40;1.00;;;;;;5057628;28;20968;-72
2023/11/20 12:50:25;;;;;;;10.90;9.53;;;12.40;1.00;;;;;;5057402;28;20492;-74
2023/11/20 12:52:54;;;;;;;12.43;9.40;;;12.40;1.00;;;;;;5068251;28;20656;-72
2023/11/20 12:55:22;;;;;;;9.80;8.90;;;12.40;1.00;;;;;;5056052;28;20454;-73
2023/11/20 12:57:54;;;;;;;8.47;6.80;;;12.40;1.00;;;;;;5060127;28;20477;-71
2023/11/20 13:00:23;;;;;;;11.53;8.27;;;12.40;1.00;;;;;;5067921;28;20961;-70
2023/11/20 13:02:55;;;;;;;9.63;8.13;;;12.50;1.00;;;;;;5060552;28;20465;-70